La Tuque, Canada
Current Conditions -  °F | °C
As of 4:00 PM on Friday 19 Dec 2014 (Local Time) from CYOY Reporting Station
Clear Clear  
Wind Chill: 21°   Ceiling: Unl
Heat Index: 21°   Visibility: 9mi
Dew Point: 18°   Wind: 3mph
Humidity: 86%   Direction: 230°SW
Pressure: 30.04"   Gusts: NA
Location:  47.44°N, 72.78°W
Report Text: CYOY 192100Z AUTO 23003KT 150V290 9SM CLR M06/M08 A3004 RMKSLP185
Loading
Personal Weather Stations






























Interactive Weather Map New forecast layout! Learn more

10-Day Weather Forecast

Advertisements
Track Severe Weather on mobile